Latest Weather Observations for Renmark Airport

IDS60801

Issued at 12:22 am CDT Tuesday 26 January 2021 (issued every 10 minutes, with the page automatically refreshed every 10 minutes)

About weather observations | Map of weather stations | Latest weather observations for SA | Other Formats
Station Details ID: 024048 Name: RENMARK AERO Lat: -34.20 Lon: 140.68 Height: 31.5 m
Data from the previous 72 hours. | See also: Recent months at Renmark Airport
Date/Time
CDT
Temp
°C
App
Temp
°C
Dew
Point
°C
Rel
Hum
%
Delta-T
°C
Wind Press
QNH
hPa
Press
MSL
hPa
Rain since
9am
mm
Dir  Spd
km/h
Gust
km/h
Spd
kts
Gust
kts
26/12:13am 22.1 23.9 21.8 98 0.2 SW 15 24 8 13 1000.9 1000.7 6.2
26/12:00am 22.9 26.0 22.9 100 0.0 W 11 13 6 7 1000.8 1000.6 6.2
 
Date/Time
CDT
Temp
°C
App
Temp
°C
Dew
Point
°C
Rel
Hum
%
Delta-T
°C
Wind Press
QNH
hPa
Press
MSL
hPa
Rain since
9am
mm
Dir  Spd
km/h
Gust
km/h
Spd
kts
Gust
kts
25/11:30pm 22.9 26.4 22.9 100 0.0 NW 9 11 5 6 1000.8 1000.6 6.2
25/11:00pm 22.8 26.1 22.6 99 0.1 WNW 9 13 5 7 1000.9 1000.7 6.2
25/10:30pm 22.8 26.1 22.6 99 0.1 WNW 9 11 5 6 1000.8 1000.6 6.0
25/10:00pm 22.7 26.5 22.4 98 0.2 NNW 6 9 3 5 1000.6 1000.4 6.0
25/09:30pm 22.6 26.3 22.3 98 0.2 NE 6 7 3 4 999.4 999.2 6.0
25/09:00pm 22.8 25.6 22.3 97 0.3 NE 11 13 6 7 999.0 998.8 5.8
25/08:30pm 22.7 27.2 22.2 97 0.3 SSW 2 9 1 5 999.7 999.5 5.6
25/08:02pm 22.6 25.9 21.8 95 0.5 SE 7 15 4 8 998.9 998.7 4.8
25/08:00pm 22.8 26.4 22.1 96 0.5 SE 6 7 3 4 999.0 998.8 4.8
25/07:51pm 22.7 25.7 21.9 95 0.5 SSE 9 11 5 6 999.0 998.8 4.6
25/07:30pm 23.0 25.2 21.8 93 0.8 SSE 13 19 7 10 998.3 998.1 2.8
25/07:00pm 23.7 24.5 21.4 87 1.5 SSW 19 30 10 16 998.6 998.4 2.4
25/06:44pm 24.4 23.9 22.1 87 1.5 WSW 28 46 15 25 999.2 999.0 2.0
25/06:30pm 24.6 25.1 22.7 89 1.3 SW 24 33 13 18 998.4 998.2 2.0
25/06:00pm 24.6 25.3 22.3 87 1.5 SW 22 35 12 19 997.5 997.3 2.0
25/05:30pm 24.4 25.7 22.7 90 1.2 WSW 20 32 11 17 997.7 997.5 2.0
25/05:10pm 24.1 24.2 22.5 91 1.1 WSW 26 35 14 19 997.6 997.4 1.8
25/05:00pm 24.2 23.6 22.6 91 1.1 WSW 30 44 16 24 997.6 997.4 1.6
25/04:50pm 24.5 22.3 21.4 83 2.0 WSW 35 50 19 27 997.3 997.1 1.0
25/04:48pm 25.4 22.8 20.6 75 3.1 WSW 35 50 19 27 997.1 996.9 0.0
25/04:38pm 30.8 27.6 18.2 47 8.1 NW 32 54 17 29 997.0 996.8 0.0
25/04:37pm 32.9 30.0 17.9 41 9.7 NNW 30 54 16 29 996.8 996.6 0.0
25/04:30pm 35.6 30.9 14.3 28 13.2 N 32 44 17 24 995.5 995.3 0.0
25/04:00pm 36.7 33.4 14.1 26 14.0 N 24 35 13 19 995.8 995.6 0.0
25/03:30pm 35.9 31.1 14.0 27 13.6 N 32 39 17 21 996.7 996.5 0.0
25/03:00pm 36.3 32.5 12.5 24 14.5 N 24 37 13 20 996.9 996.7 0.0
25/02:30pm 35.3 31.5 12.3 25 13.9 N 24 35 13 19 997.5 997.3 0.0
25/02:00pm 35.2 30.9 12.2 25 13.8 N 26 37 14 20 998.0 997.8 0.0
25/01:30pm 35.4 31.2 12.4 25 13.9 N 26 39 14 21 998.5 998.3 0.0
25/01:00pm 35.2 30.6 12.2 25 13.8 NNW 28 48 15 26 999.1 998.9 0.0
25/12:57pm 35.3 30.5 12.9 26 13.6 NNW 30 48 16 26 999.2 999.0 0.0
25/12:30pm 35.2 30.9 12.2 25 13.8 N 26 37 14 20 999.3 999.1 0.0
25/12:00pm 34.9 31.5 12.5 25 13.5 NNW 22 35 12 19 999.4 999.2 0.0
25/11:30am 34.8 29.9 12.5 26 13.5 NNW 30 39 16 21 1000.1 999.9 0.0
25/11:00am 34.3 30.4 13.2 28 12.8 NNW 26 35 14 19 1000.3 1000.1 0.0
25/10:30am 34.7 29.6 11.8 25 13.7 NW 30 43 16 23 1000.5 1000.3 0.0
25/10:10am 35.4 29.9 10.4 22 14.6 NW 30 48 16 26 1000.5 1000.3 0.0
25/10:00am 35.3 29.8 10.4 22 14.5 NW 30 39 16 21 1000.5 1000.3 0.0
25/09:41am 35.2 30.9 10.9 23 14.3 NNW 24 44 13 24 1000.5 1000.3 0.0
25/09:30am 33.8 31.5 11.6 26 13.2 N 15 22 8 12 1000.7 1000.5 0.0
25/09:00am 31.8 28.8 9.3 25 12.8 NNE 15 22 8 12 1001.0 1000.8 0.0
25/08:30am 31.8 28.0 7.5 22 13.4 NNE 17 22 9 12 1001.4 1001.2 0.0
25/08:00am 31.3 27.5 7.7 23 12.9 N 17 22 9 12 1001.5 1001.3 0.0
25/07:30am 31.8 29.3 8.1 23 13.2 N 11 13 6 7 1001.2 1001.0 0.0
25/07:00am 31.5 28.8 7.2 22 13.2 NNW 11 13 6 7 1001.0 1000.8 0.0
25/06:30am 32.3 29.0 6.5 20 14.0 NW 13 17 7 9 1001.1 1000.9 0.0
25/06:00am 33.2 28.8 6.5 19 14.6 NW 19 22 10 12 1000.9 1000.7 0.0
25/05:30am 33.3 28.9 5.0 17 15.1 NW 17 20 9 11 1000.6 1000.4 0.0
25/05:00am 33.8 29.2 5.4 17 15.2 NW 19 24 10 13 1000.6 1000.4 0.0
25/04:30am 33.9 29.1 4.6 16 15.6 NNW 19 26 10 14 1000.5 1000.3 0.0
25/04:00am 33.8 29.4 4.5 16 15.5 NNW 17 24 9 13 1000.6 1000.4 0.0
25/03:30am 33.5 29.9 5.1 17 15.2 NNW 13 17 7 9 1000.9 1000.7 0.0
25/03:00am 32.8 30.1 5.4 18 14.7 NNW 9 15 5 8 1001.2 1001.0 0.0
25/02:30am 33.0 30.1 4.7 17 15.0 WNW 9 13 5 7 1001.5 1001.3 0.0
25/02:00am 33.1 29.3 5.6 18 14.7 N 15 19 8 10 1001.1 1000.9 0.0
25/01:30am 33.8 29.0 5.4 17 15.3 N 20 26 11 14 1001.0 1000.8 0.0
25/01:00am 34.3 28.6 4.9 16 15.7 N 24 32 13 17 1001.2 1001.0 0.0
25/12:30am 34.0 29.4 5.5 17 15.4 N 19 26 10 14 1001.5 1001.3 0.0
25/12:00am 34.7 29.8 4.3 15 16.1 N 19 24 10 13 1001.5 1001.3 0.0
 
Date/Time
CDT
Temp
°C
App
Temp
°C
Dew
Point
°C
Rel
Hum
%
Delta-T
°C
Wind Press
QNH
hPa
Press
MSL
hPa
Rain since
9am
mm
Dir  Spd
km/h
Gust
km/h
Spd
kts
Gust
kts
24/11:30pm 34.5 29.6 4.1 15 16.1 N 19 24 10 13 1001.7 1001.5 0.0
24/11:00pm 34.6 30.3 5.1 16 15.8 N 17 20 9 11 1001.8 1001.6 0.0
24/10:30pm 35.6 31.2 5.0 15 16.5 N 17 20 9 11 1001.8 1001.6 0.0
24/10:00pm 36.5 32.1 4.7 14 17.1 N 17 20 9 11 1001.8 1001.6 0.0
24/09:30pm 37.2 32.7 4.2 13 17.7 N 17 22 9 12 1001.7 1001.5 0.0
24/09:00pm 37.6 33.2 4.5 13 17.9 N 17 22 9 12 1001.6 1001.4 0.0
24/08:30pm 37.9 33.5 4.7 13 18.0 N 17 24 9 13 1001.4 1001.2 0.0
24/08:00pm 38.8 33.9 4.3 12 18.6 N 19 32 10 17 1001.2 1001.0 0.0
24/07:30pm 40.1 34.7 2.7 10 20.0 N 20 32 11 17 1001.1 1000.9 0.0
24/07:00pm 40.9 35.3 3.3 10 20.2 N 22 35 12 19 1001.0 1000.8 0.0
24/06:30pm 41.3 35.3 3.6 10 20.5 N 24 35 13 19 1000.9 1000.7 0.0
24/06:00pm 41.7 36.5 2.4 9 21.1 NNE 19 28 10 15 1000.9 1000.7 0.0
24/05:30pm 43.0 36.6 3.4 9 21.7 NNE 26 35 14 19 1001.1 1000.9 0.0
24/05:00pm 43.2 36.2 1.9 8 22.0 N 28 39 15 21 1001.4 1001.2 0.0
24/04:30pm 42.5 36.8 3.0 9 21.4 N 22 39 12 21 1001.7 1001.5 0.0
24/04:00pm 42.1 35.3 1.1 8 21.5 N 26 41 14 22 1002.1 1001.9 0.0
24/03:30pm 42.1 36.0 2.7 9 21.2 NNE 24 33 13 18 1002.4 1002.2 0.0
24/03:00pm 43.2 37.7 1.9 8 22.1 NNW 20 37 11 20 1002.9 1002.8 0.0
24/02:34pm 43.3 36.3 1.9 8 22.1 N 28 48 15 26 1003.3 1003.2 0.0
24/02:30pm 42.8 36.1 1.6 8 21.9 N 26 37 14 20 1003.4 1003.3 0.0
24/02:00pm 42.6 37.9 3.1 9 21.4 WNW 17 28 9 15 1003.8 1003.7 0.0
24/01:30pm 42.1 35.2 2.7 9 21.2 NNW 28 39 15 21 1004.3 1004.2 0.0
24/01:00pm 42.6 36.6 3.1 9 21.4 NNW 24 37 13 20 1004.7 1004.6 0.0
24/12:30pm 42.2 36.4 4.3 10 20.9 NW 24 41 13 22 1005.2 1005.1 0.0
24/12:00pm 40.7 33.5 3.1 10 20.2 NNW 30 41 16 22 1005.6 1005.5 0.0
24/11:30am 40.8 33.3 3.2 10 20.2 NNW 32 44 17 24 1006.1 1006.0 0.0
24/11:00am 38.7 32.8 1.6 10 19.2 N 22 30 12 16 1006.4 1006.3 0.0
24/10:30am 37.6 32.7 2.1 11 18.5 N 17 22 9 12 1006.6 1006.5 0.0
24/10:00am 35.1 30.3 2.6 13 16.8 NNE 17 22 9 12 1006.8 1006.7 0.0
24/09:30am 32.7 28.5 3.6 16 15.1 NE 15 20 8 11 1007.1 1007.0 0.0
24/09:00am 31.0 26.4 3.9 18 14.0 NE 17 22 9 12 1007.1 1007.0 0.0
24/08:30am 27.6 24.7 6.4 26 11.2 NE 11 13 6 7 1007.3 1007.2 0.0
24/08:00am 27.6 24.3 6.4 26 11.2 NE 13 17 7 9 1007.3 1007.2 0.0
24/07:30am 26.5 23.9 6.0 27 10.7 ENE 9 13 5 7 1007.2 1007.1 0.0
24/07:00am 23.6 20.5 5.5 31 9.1 ENE 11 13 6 7 1007.3 1007.2 0.0
24/06:30am 24.3 21.1 5.1 29 9.7 ENE 11 13 6 7 1007.0 1006.9 0.0
24/06:00am 24.3 21.1 5.1 29 9.7 ENE 11 15 6 8 1006.8 1006.7 0.0
24/05:30am 24.1 20.9 5.0 29 9.6 NE 11 13 6 7 1006.6 1006.5 0.0
24/05:00am 24.7 21.9 5.0 28 9.9 NE 9 11 5 6 1006.4 1006.3 0.0
24/04:30am 22.9 20.0 2.4 26 9.8 NE 7 9 4 5 1006.4 1006.3 0.0
24/04:00am 21.0 17.6 -0.3 24 9.4 E 7 9 4 5 1006.5 1006.4 0.0
24/03:30am 20.8 18.5 -2.3 21 9.9 CALM 0 0 0 0 1006.7 1006.6 0.0
24/03:00am 21.2 18.7 -1.3 22 9.8 ENE 2 6 1 3 1006.8 1006.7 0.0
24/02:30am 21.2 18.0 -0.7 23 9.7 E 6 6 3 3 1007.0 1006.9 0.0
24/02:00am 21.2 18.1 -2.6 20 10.1 ESE 4 6 2 3 1007.2 1007.1 0.0
24/01:30am 21.4 17.8 -1.8 21 10.0 SSE 7 9 4 5 1007.3 1007.2 0.0
24/01:00am 22.6 19.3 -1.5 20 10.6 ESE 6 7 3 4 1007.4 1007.3 0.0
24/12:30am 22.0 19.3 -2.7 19 10.6 SE 2 6 1 3 1007.6 1007.5 0.0
24/12:00am 23.4 20.2 -0.8 20 10.9 E 6 7 3 4 1007.6 1007.5 0.0
 
Date/Time
CDT
Temp
°C
App
Temp
°C
Dew
Point
°C
Rel
Hum
%
Delta-T
°C
Wind Press
QNH
hPa
Press
MSL
hPa
Rain since
9am
mm
Dir  Spd
km/h
Gust
km/h
Spd
kts
Gust
kts
23/11:30pm 24.4 21.1 -1.4 18 11.5 SE 6 7 3 4 1007.8 1007.7 0.0
23/11:00pm 25.4 23.3 -0.6 18 11.9 CALM 0 6 0 3 1008.0 1007.9 0.0
23/10:30pm 26.4 23.8 -1.4 16 12.6 SW 2 7 1 4 1008.0 1007.9 0.0
23/10:00pm 30.0 26.4 0.6 15 14.2 ESE 9 13 5 7 1008.0 1007.9 0.0
23/09:30pm 29.8 25.9 -1.5 13 14.6 SSE 9 13 5 7 1007.6 1007.5 0.0
23/09:00pm 32.4 28.2 -0.6 12 15.9 SE 11 13 6 7 1007.2 1007.1 0.0
23/08:30pm 33.6 29.2 -2.2 10 17.0 SSE 11 13 6 7 1006.9 1006.8 0.0
23/08:00pm 36.9 32.5 -2.7 8 19.0 SE 11 13 6 7 1006.9 1006.8 0.0
23/07:30pm 38.2 33.5 -1.8 8 19.7 SE 13 17 7 9 1006.7 1006.6 0.0
23/07:00pm 38.8 33.8 -1.3 8 19.9 SE 15 20 8 11 1006.5 1006.4 0.0
23/06:30pm 38.8 34.5 -1.3 8 19.9 SE 11 20 6 11 1006.2 1006.1 0.0
23/06:00pm 39.6 35.0 -0.8 8 20.3 E 13 24 7 13 1006.2 1006.1 0.0
23/05:30pm 39.1 34.1 -1.1 8 20.1 ESE 15 24 8 13 1006.2 1006.1 0.0
23/05:00pm 39.5 34.6 -0.8 8 20.2 E 15 30 8 16 1006.2 1006.1 0.0
23/04:30pm 39.4 34.4 -0.9 8 20.2 SSE 15 24 8 13 1006.5 1006.4 0.0
23/04:00pm 39.6 34.4 -2.6 7 20.6 NNE 15 32 8 17 1006.9 1006.8 0.0
23/03:30pm 39.1 35.3 -1.1 8 20.1 W 9 13 5 7 1007.3 1007.2 0.0
23/03:00pm 38.6 34.2 0.1 9 19.5 N 13 26 7 14 1007.9 1007.8 0.0
23/02:30pm 38.1 33.6 -0.3 9 19.3 N 13 22 7 12 1008.4 1008.3 0.0
23/02:00pm 36.5 32.0 0.0 10 18.2 N 13 19 7 10 1008.7 1008.6 0.0
23/01:30pm 36.5 32.2 1.3 11 18.0 NNE 13 28 7 15 1009.1 1009.0 0.0
23/01:00pm 34.9 31.6 2.4 13 16.7 NNE 9 15 5 8 1009.6 1009.5 0.0
23/12:30pm 34.8 31.5 2.3 13 16.7 NNE 9 17 5 9 1009.7 1009.6 0.0
23/12:00pm 33.0 29.9 7.1 20 14.2 ENE 13 17 7 9 1010.3 1010.2 0.0
23/11:30am 32.1 29.9 7.7 22 13.5 NE 9 15 5 8 1010.7 1010.6 0.0
23/11:00am 30.5 27.9 7.7 24 12.5 NNE 11 15 6 8 1011.0 1010.9 0.0
23/10:30am 29.0 26.9 8.1 27 11.4 ESE 9 11 5 6 1011.3 1011.2 0.0
23/10:00am 27.4 25.6 7.8 29 10.5 ESE 7 11 4 6 1011.3 1011.2 0.0
23/09:30am 25.4 23.6 8.0 33 9.3 ESE 7 11 4 6 1011.5 1011.4 0.0
23/09:00am 24.1 22.2 7.7 35 8.7 ESE 7 11 4 6 1011.5 1011.4 0.0
23/08:30am 21.5 19.2 7.3 40 7.3 S 9 11 5 6 1011.6 1011.5 0.0
23/08:00am 20.3 18.3 7.3 43 6.6 SSW 7 11 4 6 1011.5 1011.4 0.0
23/07:30am 17.6 15.3 5.5 45 5.9 WSW 7 11 4 6 1011.1 1011.0 0.0
23/07:00am 15.9 13.4 4.9 48 5.2 W 7 11 4 6 1011.0 1010.9 0.0
23/06:30am 14.7 12.0 3.8 48 5.0 W 7 9 4 5 1010.8 1010.7 0.0
23/06:00am 14.9 12.1 3.4 46 5.2 WSW 7 11 4 6 1010.4 1010.3 0.0
23/05:30am 15.7 12.6 3.5 44 5.6 W 9 11 5 6 1010.3 1010.2 0.0
23/05:00am 17.0 14.1 4.7 44 5.8 W 9 11 5 6 1009.9 1009.8 0.0
23/04:30am 17.9 15.0 4.5 41 6.4 SW 9 11 5 6 1009.8 1009.7 0.0
23/04:00am 18.9 15.6 4.3 38 7.0 SSW 11 15 6 8 1009.4 1009.3 0.0
23/03:30am 19.7 16.3 3.8 35 7.6 SSW 11 17 6 9 1009.4 1009.3 0.0
23/03:00am 20.2 16.2 3.0 32 8.1 SSW 13 17 7 9 1009.5 1009.4 0.0
23/02:30am 20.3 17.0 2.2 30 8.4 SSW 9 13 5 7 1009.5 1009.4 0.0
23/02:00am 21.3 17.9 2.1 28 8.9 S 9 13 5 7 1009.7 1009.6 0.0
23/01:30am 22.0 17.8 1.6 26 9.5 S 13 20 7 11 1009.7 1009.6 0.0
23/01:00am 22.9 17.9 1.3 24 10.0 S 17 24 9 13 1009.9 1009.8 0.0
23/12:30am 23.6 18.4 0.0 21 10.8 S 17 24 9 13 1010.0 1009.9 0.0

Other formats

Comma delimited format used in spreadsheet applications
http://www.bom.gov.au/fwo/IDS60801/IDS60801.95687.axf

JavaScript Object Notation format (JSON) in row-major order
http://www.bom.gov.au/fwo/IDS60801/IDS60801.95687.json

Data quality

Most of these data are generated automatically and are frequently updated. Quality checks on data are not normally performed. It is possible for incorrect values to appear. Refer to information at About Latest Weather Observations and please check the disclaimer before using these data.